createdAt,value
2018-08-02T00:01:59.664Z,2.37
2018-08-02T00:04:28.092Z,2.80
2018-08-02T00:06:57.462Z,2.20
2018-08-02T00:09:25.888Z,2.60
2018-08-02T00:11:54.252Z,2.17
2018-08-02T00:14:22.584Z,2.60
2018-08-02T00:16:50.968Z,2.50
2018-08-02T00:19:19.299Z,2.50
2018-08-02T00:21:47.652Z,3.03
2018-08-02T00:24:16.014Z,2.27
2018-08-02T00:26:44.772Z,2.43
2018-08-02T00:29:13.654Z,2.37
2018-08-02T00:31:41.752Z,2.50
2018-08-02T00:34:10.524Z,2.40
2018-08-02T00:36:38.627Z,2.67
2018-08-02T00:39:09.660Z,2.40
2018-08-02T00:41:38.527Z,2.70
2018-08-02T00:44:06.624Z,2.97
2018-08-02T00:46:35.016Z,6.40
2018-08-02T00:49:03.360Z,3.90
2018-08-02T00:51:31.463Z,2.60
2018-08-02T00:53:59.887Z,2.10
2018-08-02T00:56:28.237Z,2.33
2018-08-02T00:58:56.564Z,2.80
2018-08-02T01:01:24.682Z,2.00
2018-08-02T01:03:53.017Z,3.50
2018-08-02T01:06:21.088Z,2.27
2018-08-02T01:08:49.887Z,3.50
2018-08-02T01:11:18.252Z,2.43
2018-08-02T01:13:46.581Z,2.57
2018-08-02T01:16:14.929Z,3.37
2018-08-02T01:18:43.280Z,2.20
2018-08-02T01:21:11.615Z,2.50
2018-08-02T01:23:39.960Z,1.90
2018-08-02T01:26:08.021Z,1.70
2018-08-02T01:28:36.736Z,1.93
2018-08-02T01:31:05.276Z,1.90
2018-08-02T01:33:33.614Z,2.07
2018-08-02T01:36:01.959Z,2.00
2018-08-02T01:38:30.326Z,2.00
2018-08-02T01:40:58.443Z,2.20
2018-08-02T01:43:27.354Z,2.20
2018-08-02T01:45:55.735Z,2.00
2018-08-02T01:48:24.056Z,1.80
2018-08-02T01:50:52.388Z,2.20
2018-08-02T01:53:20.737Z,2.60
2018-08-02T01:55:49.560Z,2.13
2018-08-02T01:58:17.636Z,1.90
2018-08-02T02:00:46.710Z,2.30
2018-08-02T02:03:15.040Z,2.17
2018-08-02T02:05:43.141Z,2.40
2018-08-02T02:08:11.516Z,2.17
2018-08-02T02:10:39.859Z,1.90
2018-08-02T02:13:12.676Z,1.80
2018-08-02T02:15:42.457Z,1.87
2018-08-02T02:18:11.244Z,1.90
2018-08-02T02:20:39.588Z,2.07
2018-08-02T02:23:08.523Z,2.53
2018-08-02T02:25:36.591Z,2.00
2018-08-02T02:28:05.445Z,1.80
2018-08-02T02:30:33.802Z,1.80
2018-08-02T02:33:02.140Z,2.40
2018-08-02T02:35:30.223Z,1.83
2018-08-02T02:37:58.568Z,2.40
2018-08-02T02:40:26.909Z,2.23
2018-08-02T02:42:55.264Z,1.90
2018-08-02T02:45:23.588Z,2.10
2018-08-02T02:47:51.911Z,2.03
2018-08-02T02:50:20.276Z,2.10
2018-08-02T02:52:48.600Z,2.10
2018-08-02T02:55:16.921Z,2.30
2018-08-02T02:57:45.275Z,2.30
2018-08-02T03:00:13.616Z,2.43
2018-08-02T03:02:41.963Z,1.90
2018-08-02T03:05:10.307Z,2.20
2018-08-02T03:07:38.651Z,2.37
2018-08-02T03:10:07.897Z,2.37
2018-08-02T03:12:36.007Z,2.40
2018-08-02T03:15:04.450Z,2.93
2018-08-02T03:17:32.803Z,2.30
2018-08-02T03:20:01.156Z,1.90
2018-08-02T03:22:29.480Z,2.60
2018-08-02T03:24:58.145Z,2.97
2018-08-02T03:27:26.487Z,3.00
2018-08-02T03:29:54.571Z,2.40
2018-08-02T03:32:22.892Z,2.50
2018-08-02T03:34:51.232Z,2.33
2018-08-02T03:37:19.561Z,2.60
2018-08-02T03:39:47.715Z,3.77
2018-08-02T03:42:16.054Z,3.17
2018-08-02T03:44:44.376Z,2.63
2018-08-02T03:47:12.772Z,3.80
2018-08-02T03:49:41.132Z,3.00
2018-08-02T03:52:09.768Z,3.37
2018-08-02T03:54:38.108Z,3.33
2018-08-02T03:57:06.472Z,3.00
2018-08-02T03:59:34.805Z,3.00
2018-08-02T04:02:03.140Z,3.00
2018-08-02T04:04:31.500Z,2.97
2018-08-02T04:07:00.632Z,2.50
2018-08-02T04:09:28.983Z,2.60
2018-08-02T04:11:57.364Z,2.83
2018-08-02T04:14:25.699Z,2.67
2018-08-02T04:16:54.051Z,2.47
2018-08-02T04:19:22.391Z,2.90
2018-08-02T04:21:50.760Z,3.00
2018-08-02T04:24:19.266Z,2.70
2018-08-02T04:26:48.183Z,2.77
2018-08-02T04:29:16.511Z,2.57
2018-08-02T04:31:45.270Z,2.87
2018-08-02T04:34:13.648Z,2.53
2018-08-02T04:36:43.397Z,2.90
2018-08-02T04:39:11.899Z,2.73
2018-08-02T04:41:40.246Z,3.03
2018-08-02T04:44:08.576Z,2.80
2018-08-02T04:46:36.923Z,2.30
2018-08-02T04:49:05.544Z,3.07
2018-08-02T04:51:33.956Z,3.03
2018-08-02T04:54:02.551Z,2.93
2018-08-02T04:56:30.888Z,2.60
2018-08-02T04:58:59.223Z,2.80
2018-08-02T05:01:27.604Z,2.60
2018-08-02T05:03:55.968Z,2.83
2018-08-02T05:06:24.311Z,3.23
2018-08-02T05:08:52.672Z,2.63
2018-08-02T05:11:21.028Z,2.50
2018-08-02T05:13:49.539Z,3.27
2018-08-02T05:16:17.631Z,3.17
2018-08-02T05:18:45.964Z,2.90
2018-08-02T05:21:14.314Z,3.33
2018-08-02T05:23:42.688Z,2.80
2018-08-02T05:26:11.043Z,3.20
2018-08-02T05:28:39.400Z,3.17
2018-08-02T05:31:07.755Z,3.43
2018-08-02T05:33:36.620Z,3.90
2018-08-02T05:36:05.247Z,3.63
2018-08-02T05:38:33.341Z,2.97
2018-08-02T05:41:08.480Z,3.10
2018-08-02T05:43:37.048Z,3.77
2018-08-02T05:46:05.447Z,4.10
2018-08-02T05:48:33.864Z,3.70
2018-08-02T05:51:02.191Z,3.90
2018-08-02T05:53:30.363Z,4.00
2018-08-02T05:55:58.735Z,3.50
2018-08-02T05:58:27.104Z,4.27
2018-08-02T06:00:55.444Z,4.00
2018-08-02T06:03:24.608Z,4.50
2018-08-02T06:05:52.663Z,3.60
2018-08-02T06:08:21.022Z,3.90
2018-08-02T06:10:49.384Z,4.07
2018-08-02T06:13:17.759Z,4.20
2018-08-02T06:15:46.230Z,4.20
2018-08-02T06:18:14.723Z,4.07
2018-08-02T06:20:43.090Z,4.40
2018-08-02T06:23:11.425Z,4.27
2018-08-02T06:25:39.801Z,4.23
2018-08-02T06:28:07.880Z,4.20
2018-08-02T06:30:35.959Z,4.23
2018-08-02T06:33:04.063Z,3.90
2018-08-02T06:35:32.399Z,4.40
2018-08-02T06:38:00.483Z,4.00
2018-08-02T06:40:29.027Z,3.60
2018-08-02T06:42:57.382Z,4.27
2018-08-02T06:45:25.764Z,4.40
2018-08-02T06:47:53.064Z,4.63
2018-08-02T06:50:21.247Z,4.60
2018-08-02T06:52:49.319Z,4.57
2018-08-02T06:55:17.525Z,4.80
2018-08-02T06:57:45.863Z,4.20
2018-08-02T07:00:15.095Z,5.07
2018-08-02T07:02:43.589Z,4.90
2018-08-02T07:05:11.917Z,3.70
2018-08-02T07:07:39.979Z,4.20
2018-08-02T07:10:09.111Z,3.67
2018-08-02T07:12:37.894Z,4.87
2018-08-02T07:15:07.790Z,4.33
2018-08-02T07:17:36.173Z,4.50
2018-08-02T07:20:04.624Z,5.07
2018-08-02T07:22:32.944Z,4.97
2018-08-02T07:25:01.302Z,5.07
2018-08-02T07:27:29.631Z,4.20
2018-08-02T07:29:58.784Z,5.23
2018-08-02T07:32:26.867Z,5.70
2018-08-02T07:34:55.158Z,4.60
2018-08-02T07:37:23.480Z,4.83
2018-08-02T07:39:52.063Z,4.20
2018-08-02T07:42:20.395Z,5.00
2018-08-02T07:44:48.727Z,4.40
2018-08-02T07:47:17.064Z,5.23
2018-08-02T07:49:45.385Z,4.67
2018-08-02T07:52:13.779Z,4.17
2018-08-02T07:54:42.124Z,4.30
2018-08-02T07:57:10.490Z,4.83
2018-08-02T07:59:39.087Z,4.83
2018-08-02T08:02:07.516Z,5.27
2018-08-02T08:04:35.575Z,5.20
2018-08-02T08:07:03.927Z,6.00
2018-08-02T08:09:32.686Z,4.87
2018-08-02T08:12:01.022Z,4.80
2018-08-02T08:14:29.129Z,5.53
2018-08-02T08:16:57.467Z,5.00
2018-08-02T08:19:25.816Z,4.40
2018-08-02T08:21:54.675Z,5.10
2018-08-02T08:24:23.016Z,5.80
2018-08-02T08:26:51.407Z,4.80
2018-08-02T08:29:19.817Z,5.00
2018-08-02T08:31:48.160Z,5.33
2018-08-02T08:34:16.239Z,4.70
2018-08-02T08:36:44.351Z,4.33
2018-08-02T08:39:12.776Z,4.17
2018-08-02T08:41:41.132Z,3.87
2018-08-02T08:44:09.807Z,4.70
2018-08-02T08:46:38.131Z,5.27
2018-08-02T08:49:06.193Z,4.73
2018-08-02T08:51:34.551Z,5.30
2018-08-02T08:54:02.915Z,4.23
2018-08-02T08:56:31.323Z,4.77
2018-08-02T08:59:11.339Z,4.80
2018-08-02T09:01:39.709Z,3.97
2018-08-02T09:04:08.072Z,4.37
2018-08-02T09:06:36.444Z,4.20
2018-08-02T09:09:07.256Z,4.47
2018-08-02T09:11:35.637Z,4.30
2018-08-02T09:14:04.072Z,3.30
2018-08-02T09:16:32.452Z,4.40
2018-08-02T09:19:00.679Z,3.60
2018-08-02T09:21:28.759Z,3.97
2018-08-02T09:23:57.083Z,4.20
2018-08-02T09:26:25.408Z,4.60
2018-08-02T09:28:53.486Z,3.70
2018-08-02T09:31:21.932Z,3.87
2018-08-02T09:33:50.260Z,3.80
2018-08-02T09:36:18.654Z,4.10
2018-08-02T09:38:47.165Z,3.50
2018-08-02T09:41:15.547Z,4.07
2018-08-02T09:43:43.939Z,4.13
2018-08-02T09:46:12.304Z,3.80
2018-08-02T09:48:40.655Z,3.83
2018-08-02T09:51:09.016Z,3.70
2018-08-02T09:53:37.479Z,4.43
2018-08-02T09:56:05.547Z,3.60
2018-08-02T09:58:33.623Z,3.33
2018-08-02T10:01:07.328Z,4.47
2018-08-02T10:03:36.160Z,4.30
2018-08-02T10:06:04.447Z,4.30
2018-08-02T10:08:32.827Z,4.30
2018-08-02T10:11:01.143Z,3.83
2018-08-02T10:13:29.208Z,4.40
2018-08-02T10:15:57.627Z,3.60
2018-08-02T10:18:25.936Z,4.87
2018-08-02T10:20:54.289Z,5.07
2018-08-02T10:23:22.720Z,4.50
2018-08-02T10:25:51.074Z,5.03
2018-08-02T10:28:19.660Z,4.43
2018-08-02T10:30:48.548Z,4.40
2018-08-02T10:33:16.900Z,4.37
2018-08-02T10:35:45.228Z,4.27
2018-08-02T10:38:13.575Z,4.20
2018-08-02T10:40:41.900Z,5.20
2018-08-02T10:43:09.959Z,3.87
2018-08-02T11:29:20.041Z,4.50
2018-08-02T11:31:49.204Z,4.30
2018-08-02T11:34:17.529Z,4.83
2018-08-02T11:36:45.927Z,4.90
2018-08-02T11:39:14.239Z,4.83
2018-08-02T11:41:42.561Z,4.90
2018-08-02T11:44:11.368Z,5.80
2018-08-02T11:46:39.683Z,4.40
2018-08-02T11:49:08.470Z,5.47
2018-08-02T11:51:36.839Z,4.30
2018-08-02T11:54:05.184Z,5.20
2018-08-02T11:56:33.585Z,3.47
2018-08-02T11:59:02.364Z,4.60
2018-08-02T12:01:30.495Z,4.47
2018-08-02T12:03:58.822Z,4.30
2018-08-02T12:06:27.220Z,4.10
2018-08-02T12:08:55.553Z,4.80
2018-08-02T12:11:24.137Z,4.20
2018-08-02T12:13:53.151Z,6.23
2018-08-02T12:16:21.501Z,5.50
2018-08-02T12:18:49.837Z,5.60
2018-08-02T12:21:18.212Z,6.13
2018-08-02T12:23:46.561Z,5.27
2018-08-02T12:26:14.933Z,5.23
2018-08-02T12:28:43.302Z,4.80
2018-08-02T12:31:11.623Z,4.17
2018-08-02T12:33:39.954Z,4.90
2018-08-02T12:36:08.320Z,4.50
2018-08-02T12:38:37.032Z,4.70
2018-08-02T12:41:05.683Z,4.37
2018-08-02T12:43:34.036Z,4.53
2018-08-02T12:46:02.436Z,5.93
2018-08-02T12:48:30.744Z,4.57
2018-08-02T12:50:59.088Z,3.90
2018-08-02T12:53:27.183Z,3.90
2018-08-02T12:55:55.959Z,3.33
2018-08-02T12:58:24.243Z,3.43
2018-08-02T13:00:52.644Z,4.03
2018-08-02T13:03:20.747Z,4.80
2018-08-02T13:05:49.038Z,5.20
2018-08-02T13:08:17.371Z,4.53
2018-08-02T13:10:45.870Z,3.97
2018-08-02T13:13:14.638Z,4.10
2018-08-02T13:15:43.043Z,3.30
2018-08-02T13:18:11.451Z,4.33
2018-08-02T13:20:39.804Z,3.63
2018-08-02T13:23:08.140Z,5.00
2018-08-02T13:25:36.484Z,4.00
2018-08-02T13:28:05.471Z,3.60
2018-08-02T13:30:33.752Z,3.80
2018-08-02T13:33:02.111Z,3.17
2018-08-02T13:35:30.636Z,3.10
2018-08-02T13:37:59.196Z,3.33
2018-08-02T13:40:27.717Z,4.43
2018-08-02T13:42:56.050Z,3.17
2018-08-02T13:45:24.406Z,3.53
2018-08-02T13:47:52.763Z,3.70
2018-08-02T13:50:21.092Z,3.60
2018-08-02T13:52:49.496Z,3.90
2018-08-02T13:55:17.848Z,4.53
2018-08-02T13:57:46.177Z,3.80
2018-08-02T14:00:14.512Z,3.33
2018-08-02T14:02:42.591Z,3.13
2018-08-02T14:05:10.687Z,2.93
2018-08-02T14:07:39.015Z,2.77
2018-08-02T14:10:07.472Z,2.73
2018-08-02T14:12:35.854Z,2.70
2018-08-02T14:15:04.640Z,2.83
2018-08-02T14:17:33.038Z,3.13
2018-08-02T14:20:01.483Z,3.20
2018-08-02T14:22:29.908Z,3.90
2018-08-02T14:24:58.159Z,3.30
2018-08-02T14:27:26.500Z,3.00
2018-08-02T14:29:54.824Z,3.20
2018-08-02T14:32:23.147Z,3.20
2018-08-02T14:34:51.608Z,3.90
2018-08-02T14:37:19.933Z,3.33
2018-08-02T14:39:48.252Z,2.90
2018-08-02T14:42:16.862Z,2.90
2018-08-02T14:44:45.188Z,2.80
2018-08-02T14:47:13.664Z,2.50
2018-08-02T14:49:42.408Z,2.30
2018-08-02T14:52:10.817Z,2.77
2018-08-02T14:54:39.300Z,3.57
2018-08-02T14:57:07.724Z,3.53
2018-08-02T14:59:36.062Z,3.00
2018-08-02T15:02:04.502Z,3.30
2018-08-02T15:04:32.831Z,2.90
2018-08-02T15:07:01.225Z,2.60
2018-08-02T15:09:30.147Z,2.50
2018-08-02T15:11:58.560Z,2.87
2018-08-02T15:14:26.875Z,2.90
2018-08-02T15:16:55.290Z,3.30
2018-08-02T15:19:23.623Z,3.20
2018-08-02T15:21:52.004Z,2.90
2018-08-02T15:24:20.359Z,2.80
2018-08-02T15:26:48.673Z,3.03
2018-08-02T15:29:17.034Z,2.50
2018-08-02T15:31:45.399Z,3.30
2018-08-02T15:34:13.732Z,3.63
2018-08-02T15:36:41.819Z,2.97
2018-08-02T15:39:10.843Z,2.40
2018-08-02T15:41:39.787Z,2.70
2018-08-02T15:44:08.421Z,3.40
2018-08-02T15:46:36.839Z,3.20
2018-08-02T15:49:05.539Z,3.53
2018-08-02T15:51:34.419Z,2.73
2018-08-02T15:54:02.772Z,3.20
2018-08-02T15:56:31.519Z,3.80
2018-08-02T15:58:59.912Z,3.10
2018-08-02T16:01:28.588Z,2.30
2018-08-02T16:03:57.208Z,2.63
2018-08-02T16:06:25.927Z,2.97
2018-08-02T16:08:54.578Z,2.77
2018-08-02T16:11:23.281Z,2.30
2018-08-02T16:13:51.703Z,2.60
2018-08-02T16:16:20.033Z,2.80
2018-08-02T16:18:48.424Z,2.70
2018-08-02T16:21:17.209Z,2.97
2018-08-02T16:23:45.566Z,3.30
2018-08-02T16:26:14.275Z,2.50
2018-08-02T16:28:43.135Z,3.17
2018-08-02T16:31:11.578Z,3.20
2018-08-02T16:33:40.177Z,3.57
2018-08-02T16:36:08.836Z,3.60
2018-08-02T16:38:37.231Z,3.53
2018-08-02T16:41:05.319Z,3.57
2018-08-02T16:43:33.745Z,3.93
2018-08-02T16:46:02.049Z,3.80
2018-08-02T16:48:30.207Z,3.97
2018-08-02T16:50:58.755Z,4.00
2018-08-02T16:53:27.096Z,4.70
2018-08-02T16:55:55.791Z,4.70
2018-08-02T16:58:24.172Z,4.27
2018-08-02T17:00:53.483Z,5.67
2018-08-02T17:03:21.888Z,4.67
2018-08-02T17:05:50.598Z,4.90
2018-08-02T17:08:18.996Z,4.93
2018-08-02T17:10:47.487Z,4.77
2018-08-02T17:13:16.027Z,4.10
2018-08-02T17:15:44.412Z,4.50
2018-08-02T17:18:12.779Z,5.43
2018-08-02T17:20:41.563Z,4.67
2018-08-02T17:23:09.997Z,4.20
2018-08-02T17:25:38.337Z,4.53
2018-08-02T17:28:06.728Z,3.47
2018-08-02T17:30:35.336Z,3.50
2018-08-02T17:33:03.703Z,4.40
2018-08-02T17:35:32.238Z,3.50
2018-08-02T17:38:00.633Z,3.10
2018-08-02T17:40:29.121Z,3.43
2018-08-02T17:42:57.489Z,3.60
2018-08-02T17:45:26.288Z,3.70
2018-08-02T17:47:55.129Z,4.30
2018-08-02T17:50:23.520Z,3.80
2018-08-02T17:52:59.142Z,4.00
2018-08-02T17:55:27.237Z,3.40
2018-08-02T17:57:55.648Z,3.90
2018-08-02T18:00:24.303Z,4.23
2018-08-02T18:02:52.652Z,3.33
2018-08-02T18:05:21.278Z,4.07
2018-08-02T18:07:49.716Z,4.53
2018-08-02T18:10:18.071Z,4.13
2018-08-02T18:12:46.419Z,3.43
2018-08-02T18:15:15.152Z,3.07
2018-08-02T18:17:43.565Z,3.40
2018-08-02T18:20:12.100Z,3.27
2018-08-02T18:22:40.452Z,3.50
2018-08-02T18:25:08.896Z,3.20
2018-08-02T18:27:37.107Z,2.83
2018-08-02T18:30:06.100Z,3.27
2018-08-02T18:32:35.038Z,2.80
2018-08-02T18:35:03.641Z,2.73
2018-08-02T18:37:32.144Z,3.33
2018-08-02T18:40:00.661Z,3.50
2018-08-02T18:42:28.979Z,3.10
2018-08-02T18:44:57.195Z,4.30
2018-08-02T18:47:25.718Z,2.53
2018-08-02T18:49:54.193Z,3.60
2018-08-02T18:52:22.738Z,2.67
2018-08-02T18:54:51.525Z,2.70
2018-08-02T18:57:20.359Z,2.97
2018-08-02T18:59:49.071Z,3.93
2018-08-02T19:02:17.596Z,3.50
2018-08-02T19:04:46.017Z,3.00
2018-08-02T19:07:14.396Z,2.87
2018-08-02T19:09:42.940Z,2.60
2018-08-02T19:12:11.320Z,3.57
2018-08-02T19:14:39.804Z,3.60
2018-08-02T19:17:08.285Z,3.00
2018-08-02T19:19:36.676Z,3.03
2018-08-02T19:22:05.497Z,2.70
2018-08-02T19:24:33.839Z,3.20
2018-08-02T19:27:02.193Z,4.50
2018-08-02T19:29:30.588Z,3.73
2018-08-02T19:31:58.924Z,2.97
2018-08-02T19:34:27.356Z,3.53
2018-08-02T19:36:55.990Z,2.67
2018-08-02T19:39:24.611Z,3.70
2018-08-02T19:41:53.956Z,3.33
2018-08-02T19:44:22.051Z,3.50
2018-08-02T19:46:50.424Z,3.90
2018-08-02T19:49:19.159Z,3.10
2018-08-02T19:51:47.629Z,3.13
2018-08-02T19:54:15.949Z,3.20
2018-08-02T19:56:44.276Z,2.90
2018-08-02T19:59:13.082Z,3.80
2018-08-02T20:01:41.783Z,3.70
2018-08-02T20:04:10.165Z,3.30
2018-08-02T20:06:38.627Z,3.20
2018-08-02T20:09:09.296Z,2.67
2018-08-02T20:11:38.902Z,3.13
2018-08-02T20:14:07.566Z,3.47
2018-08-02T20:16:36.208Z,3.30
2018-08-02T20:19:04.660Z,2.43
2018-08-02T20:21:32.980Z,3.27
2018-08-02T20:24:01.380Z,3.40
2018-08-02T20:26:30.498Z,3.10
2018-08-02T20:28:58.860Z,3.10
2018-08-02T20:31:27.674Z,2.80
2018-08-02T20:33:56.331Z,3.10
2018-08-02T20:36:31.742Z,3.63
2018-08-02T20:39:00.672Z,2.90
2018-08-02T20:41:29.160Z,3.80
2018-08-02T20:43:57.688Z,3.07
2018-08-02T20:46:26.279Z,3.67
2018-08-02T20:48:55.129Z,3.20
2018-08-02T20:51:23.231Z,2.97
2018-08-02T20:53:51.309Z,3.60
2018-08-02T20:56:20.148Z,2.77
2018-08-02T20:58:48.790Z,2.97
2018-08-02T21:01:17.758Z,3.07
2018-08-02T21:03:46.266Z,2.40
2018-08-02T21:06:14.664Z,2.90
2018-08-02T21:08:43.116Z,2.77
2018-08-02T21:11:11.757Z,2.90
2018-08-02T21:13:40.279Z,2.73
2018-08-02T21:16:09.651Z,4.10
2018-08-02T21:18:38.755Z,2.80
2018-08-02T21:21:07.619Z,3.33
2018-08-02T21:23:36.695Z,2.93
2018-08-02T21:28:39.882Z,3.30
2018-08-02T21:31:08.820Z,3.70
2018-08-02T21:33:37.183Z,3.20
2018-08-02T21:36:05.550Z,3.60
2018-08-02T21:38:34.407Z,3.43
2018-08-02T21:41:03.080Z,3.47
2018-08-02T21:43:31.239Z,3.37
2018-08-02T21:46:00.281Z,3.77
2018-08-02T21:48:29.197Z,3.53
2018-08-02T21:50:57.572Z,3.30
2018-08-02T21:53:26.469Z,3.17
2018-08-02T21:55:55.252Z,4.40
2018-08-02T21:58:24.079Z,3.10
2018-08-02T22:00:53.053Z,3.47
2018-08-02T22:03:21.413Z,3.70
2018-08-02T22:05:49.768Z,3.30
2018-08-02T22:08:18.384Z,3.30
2018-08-02T22:10:46.770Z,4.40
2018-08-02T22:13:20.445Z,3.50
2018-08-02T22:15:56.395Z,3.47
2018-08-02T22:18:25.202Z,4.27
2018-08-02T22:20:54.319Z,3.80
2018-08-02T22:23:22.696Z,4.50
2018-08-02T22:25:51.620Z,5.20
2018-08-02T22:28:19.997Z,3.77
2018-08-02T22:30:48.429Z,3.97
2018-08-02T22:33:16.825Z,3.10
2018-08-02T22:35:45.932Z,5.17
2018-08-02T22:38:14.594Z,4.33
2018-08-02T22:40:43.003Z,4.70
2018-08-02T22:43:11.404Z,4.33
2018-08-02T22:45:39.561Z,4.23
2018-08-02T22:48:08.008Z,3.67
2018-08-02T22:50:36.448Z,4.60
2018-08-02T22:53:04.840Z,4.53
2018-08-02T22:55:33.274Z,4.00
2018-08-02T22:58:01.691Z,4.63
2018-08-02T23:00:30.144Z,4.07
2018-08-02T23:02:58.234Z,4.40
2018-08-02T23:05:26.327Z,4.37
2018-08-02T23:07:54.773Z,4.07
2018-08-02T23:10:23.293Z,4.63
2018-08-02T23:12:51.659Z,4.00
2018-08-02T23:15:20.095Z,4.07
2018-08-02T23:17:48.700Z,4.60
2018-08-02T23:20:17.460Z,4.30
2018-08-02T23:22:50.743Z,4.30
2018-08-02T23:25:20.019Z,4.17
2018-08-02T23:27:49.359Z,3.90
2018-08-02T23:30:18.409Z,4.43
2018-08-02T23:32:47.489Z,4.47
2018-08-02T23:35:16.864Z,4.20
2018-08-02T23:37:46.375Z,4.53
2018-08-02T23:40:14.744Z,4.70
2018-08-02T23:42:43.211Z,4.63
2018-08-02T23:45:13.684Z,5.03
2018-08-02T23:47:41.784Z,5.20
2018-08-02T23:50:10.636Z,4.87
2018-08-02T23:52:38.976Z,5.00
2018-08-02T23:55:08.170Z,6.23
2018-08-02T23:57:37.476Z,6.23
